createdAt,value
2019-04-28T00:00:11.447Z,7.37
2019-04-28T00:02:40.830Z,6.10
2019-04-28T00:05:09.304Z,6.50
2019-04-28T00:07:37.755Z,6.47
2019-04-28T00:10:06.748Z,5.83
2019-04-28T00:12:37.298Z,6.03
2019-04-28T00:15:05.743Z,6.10
2019-04-28T00:17:34.203Z,6.37
2019-04-28T00:20:04.435Z,6.10
2019-04-28T00:22:46.611Z,6.90
2019-04-28T00:25:27.218Z,6.00
2019-04-28T00:27:55.594Z,5.40
2019-04-28T00:30:24.047Z,5.77
2019-04-28T00:32:52.595Z,5.67
2019-04-28T00:35:21.517Z,5.40
2019-04-28T00:37:51.721Z,5.70
2019-04-28T00:40:22.463Z,6.33
2019-04-28T00:42:51.265Z,5.93
2019-04-28T00:45:21.399Z,6.40
2019-04-28T00:47:51.029Z,6.30
2019-04-28T00:50:19.530Z,5.37
2019-04-28T00:52:47.971Z,6.67
2019-04-28T00:55:16.362Z,6.77
2019-04-28T00:57:44.819Z,7.83
2019-04-28T01:00:14.243Z,5.63
2019-04-28T01:02:43.432Z,5.57
2019-04-28T01:05:12.612Z,6.47
2019-04-28T01:07:41.491Z,6.63
2019-04-28T01:10:11.754Z,6.30
2019-04-28T01:12:41.101Z,5.90
2019-04-28T01:15:27.766Z,5.80
2019-04-28T01:18:14.243Z,5.83
2019-04-28T01:20:42.781Z,5.90
2019-04-28T01:23:11.236Z,5.40
2019-04-28T01:25:40.172Z,5.57
2019-04-28T01:28:09.829Z,6.43
2019-04-28T01:31:03.446Z,4.47
2019-04-28T01:33:51.058Z,5.43
2019-04-28T01:36:20.300Z,5.43
2019-04-28T01:38:50.075Z,4.97
2019-04-28T01:41:19.813Z,5.43
2019-04-28T01:43:52.319Z,5.17
2019-04-28T01:46:20.806Z,4.97
2019-04-28T01:48:49.743Z,5.13
2019-04-28T01:51:19.085Z,4.97
2019-04-28T01:53:50.316Z,5.30
2019-04-28T01:56:20.348Z,5.43
2019-04-28T01:58:49.969Z,4.73
2019-04-28T02:01:20.431Z,5.07
2019-04-28T02:03:50.215Z,4.83
2019-04-28T02:06:19.877Z,6.00
2019-04-28T02:08:51.131Z,4.50
2019-04-28T02:11:19.800Z,6.07
2019-04-28T02:13:49.677Z,5.10
2019-04-28T02:16:19.447Z,4.90
2019-04-28T02:18:49.611Z,5.83
2019-04-28T02:21:52.595Z,4.90
2019-04-28T02:24:31.153Z,4.73
2019-04-28T02:27:00.861Z,5.23
2019-04-28T02:29:30.108Z,5.50
2019-04-28T02:32:01.696Z,5.07
2019-04-28T02:34:31.211Z,5.43
2019-04-28T02:37:01.622Z,5.63
2019-04-28T02:39:31.213Z,5.07
2019-04-28T02:42:01.487Z,4.40
2019-04-28T02:44:34.105Z,5.00
2019-04-28T02:47:01.032Z,4.77
2019-04-28T02:49:50.369Z,5.20
2019-04-28T02:52:36.916Z,5.73
2019-04-28T02:55:05.582Z,6.03
2019-04-28T02:57:34.035Z,5.30
2019-04-28T03:00:02.635Z,4.57
2019-04-28T03:02:31.959Z,5.17
2019-04-28T03:05:00.612Z,4.87
2019-04-28T03:07:31.274Z,5.77
2019-04-28T03:10:06.302Z,5.13
2019-04-28T03:12:34.767Z,5.13
2019-04-28T03:15:03.838Z,4.90
2019-04-28T03:17:32.276Z,5.10
2019-04-28T03:20:01.719Z,5.60
2019-04-28T03:22:33.678Z,5.43
2019-04-28T03:25:03.308Z,4.40
2019-04-28T03:27:57.111Z,4.97
2019-04-28T03:30:44.272Z,5.97
2019-04-28T03:33:18.958Z,4.87
2019-04-28T03:35:45.423Z,5.47
2019-04-28T03:38:13.947Z,4.53
2019-04-28T03:40:42.420Z,5.00
2019-04-28T03:43:14.338Z,5.17
2019-04-28T03:45:46.575Z,4.70
2019-04-28T03:48:14.940Z,5.77
2019-04-28T03:50:43.320Z,6.10
2019-04-28T03:53:11.704Z,5.30
2019-04-28T03:55:41.634Z,5.57
2019-04-28T03:58:10.536Z,5.70
2019-04-28T04:00:40.852Z,6.13
2019-04-28T04:03:10.953Z,5.53
2019-04-28T04:05:40.614Z,5.47
2019-04-28T04:08:11.037Z,4.63
2019-04-28T04:10:59.990Z,4.60
2019-04-28T04:13:42.542Z,4.37
2019-04-28T04:16:21.228Z,3.90
2019-04-28T04:18:53.800Z,4.40
2019-04-28T04:21:23.806Z,4.83
2019-04-28T04:23:52.227Z,6.13
2019-04-28T04:26:21.561Z,5.53
2019-04-28T04:28:51.418Z,5.03
2019-04-28T04:31:41.329Z,4.93
2019-04-28T04:34:10.679Z,4.27
2019-04-28T04:36:41.682Z,5.17
2019-04-28T04:39:10.787Z,4.37
2019-04-28T04:41:43.473Z,4.97
2019-04-28T04:44:14.265Z,4.67
2019-04-28T04:46:42.834Z,6.27
2019-04-28T04:49:12.215Z,4.90
2019-04-28T04:51:43.893Z,4.77
2019-04-28T04:54:12.626Z,4.43
2019-04-28T04:56:41.055Z,4.90
2019-04-28T04:59:10.320Z,4.23
2019-04-28T05:01:50.269Z,4.57
2019-04-28T05:04:39.595Z,4.70
2019-04-28T05:07:08.114Z,6.17
2019-04-28T05:09:36.637Z,4.63
2019-04-28T05:12:05.143Z,5.40
2019-04-28T05:14:33.619Z,6.23
2019-04-28T05:17:02.229Z,4.70
2019-04-28T05:19:30.739Z,4.90
2019-04-28T05:22:00.015Z,4.40
2019-04-28T05:24:40.597Z,5.20
2019-04-28T05:27:09.847Z,4.60
2019-04-28T05:29:39.785Z,3.80
2019-04-28T05:32:10.637Z,4.13
2019-04-28T05:34:41.525Z,4.50
2019-04-28T05:37:10.756Z,5.03
2019-04-28T05:39:40.465Z,5.17
2019-04-28T05:42:09.764Z,3.83
2019-04-28T05:44:40.745Z,5.27
2019-04-28T05:47:09.917Z,5.27
2019-04-28T05:49:46.403Z,4.70
2019-04-28T05:52:34.045Z,6.43
2019-04-28T05:55:10.152Z,6.33
2019-04-28T05:57:52.995Z,4.40
2019-04-28T06:00:39.951Z,5.27
2019-04-28T06:03:09.689Z,5.67
2019-04-28T06:05:39.490Z,5.47
2019-04-28T06:08:30.462Z,5.40
2019-04-28T06:10:59.938Z,4.80
2019-04-28T06:13:30.305Z,5.20
2019-04-28T06:15:59.879Z,5.63
2019-04-28T06:18:28.532Z,5.23
2019-04-28T06:20:56.979Z,5.03
2019-04-28T06:23:25.503Z,6.03
2019-04-28T06:25:53.968Z,5.67
2019-04-28T06:28:22.376Z,5.87
2019-04-28T06:30:50.847Z,5.30
2019-04-28T06:33:19.451Z,5.53
2019-04-28T06:35:48.834Z,5.90
2019-04-28T06:38:17.237Z,5.03
2019-04-28T06:40:45.715Z,6.17
2019-04-28T06:43:14.227Z,5.70
2019-04-28T06:45:42.692Z,5.50
2019-04-28T06:48:11.159Z,4.20
2019-04-28T06:50:39.555Z,5.73
2019-04-28T06:53:13.735Z,5.63
2019-04-28T06:56:05.234Z,5.10
2019-04-28T06:58:33.818Z,4.93
2019-04-28T07:01:02.321Z,6.13
2019-04-28T07:03:32.358Z,6.60
2019-04-28T07:06:02.528Z,5.50
2019-04-28T07:08:31.144Z,5.23
2019-04-28T07:11:00.307Z,5.37
2019-04-28T07:13:28.936Z,5.63
2019-04-28T07:15:57.552Z,5.87
2019-04-28T07:18:26.007Z,6.50
2019-04-28T07:21:16.488Z,5.83
2019-04-28T07:23:45.072Z,6.60
2019-04-28T07:26:14.259Z,6.27
2019-04-28T07:28:42.893Z,6.93
2019-04-28T07:31:11.495Z,7.33
2019-04-28T07:33:39.903Z,6.73
2019-04-28T07:36:08.924Z,6.53
2019-04-28T07:38:38.739Z,5.93
2019-04-28T07:41:13.642Z,5.17
2019-04-28T07:43:49.334Z,6.33
2019-04-28T07:46:17.754Z,6.70
2019-04-28T07:48:46.209Z,6.13
2019-04-28T07:51:14.686Z,5.90
2019-04-28T07:53:49.761Z,7.37
2019-04-28T07:56:18.226Z,5.50
2019-04-28T07:58:46.718Z,6.43
2019-04-28T08:01:15.243Z,6.10
2019-04-28T08:03:49.555Z,4.70
2019-04-28T08:06:13.923Z,6.00
2019-04-28T08:08:42.361Z,5.57
2019-04-28T08:11:10.775Z,9.23
2019-04-28T08:13:39.439Z,9.13
2019-04-28T08:16:07.881Z,8.57
2019-04-28T08:18:36.284Z,7.83
2019-04-28T08:21:04.722Z,7.87
2019-04-28T08:23:33.159Z,8.80
2019-04-28T08:26:01.650Z,9.73
2019-04-28T08:28:30.730Z,8.53
2019-04-28T08:30:59.216Z,7.63
2019-04-28T08:33:37.525Z,9.57
2019-04-28T08:36:06.055Z,8.20
2019-04-28T08:38:34.562Z,7.50
2019-04-28T08:41:03.334Z,7.33
2019-04-28T08:43:31.821Z,5.60
2019-04-28T08:46:00.611Z,6.10
2019-04-28T08:48:29.216Z,5.50
2019-04-28T08:50:57.845Z,4.73
2019-04-28T08:53:31.353Z,6.50
2019-04-28T08:56:00.064Z,5.10
2019-04-28T08:58:29.136Z,5.10
2019-04-28T09:00:58.326Z,4.97
2019-04-28T09:03:26.976Z,5.10
2019-04-28T09:05:55.615Z,5.30
2019-04-28T09:08:24.399Z,5.17
2019-04-28T09:10:53.059Z,5.63
2019-04-28T09:13:21.617Z,6.03
2019-04-28T09:15:52.016Z,5.50
2019-04-28T09:18:20.600Z,6.77
2019-04-28T09:20:49.422Z,5.50
2019-04-28T09:23:17.920Z,6.17
2019-04-28T09:25:47.344Z,6.70
2019-04-28T09:28:15.760Z,6.07
2019-04-28T09:30:44.335Z,6.40
2019-04-28T09:33:12.957Z,5.57
2019-04-28T09:35:50.671Z,6.77
2019-04-28T09:38:19.145Z,7.07
2019-04-28T09:40:47.593Z,7.80
2019-04-28T09:43:22.948Z,7.90
2019-04-28T09:46:00.295Z,7.97
2019-04-28T09:48:28.862Z,6.93
2019-04-28T09:50:57.500Z,7.43
2019-04-28T09:53:26.043Z,7.37
2019-04-28T09:55:54.578Z,8.07
2019-04-28T09:58:23.202Z,6.83
2019-04-28T10:00:51.916Z,6.37
2019-04-28T10:03:20.466Z,7.63
2019-04-28T10:05:56.229Z,7.33
2019-04-28T10:08:24.630Z,6.47
2019-04-28T10:10:53.215Z,6.60
2019-04-28T10:13:25.901Z,5.43
2019-04-28T10:16:01.148Z,4.97
2019-04-28T10:18:31.632Z,5.47
2019-04-28T10:21:00.052Z,5.70
2019-04-28T10:23:28.579Z,5.67
2019-04-28T10:25:57.132Z,6.10
2019-04-28T10:28:25.731Z,5.40
2019-04-28T10:30:54.331Z,5.93
2019-04-28T10:33:22.775Z,4.97
2019-04-28T10:35:51.136Z,6.03
2019-04-28T10:38:19.604Z,5.70
2019-04-28T10:40:53.558Z,5.93
2019-04-28T10:43:22.131Z,6.00
2019-04-28T10:45:51.068Z,5.73
2019-04-28T10:48:20.559Z,7.30
2019-04-28T10:50:49.319Z,7.93
2019-04-28T10:53:17.935Z,7.40
2019-04-28T10:55:46.370Z,7.10
2019-04-28T10:58:15.007Z,7.93
2019-04-28T11:00:44.454Z,8.00
2019-04-28T11:03:12.985Z,8.03
2019-04-28T11:05:45.069Z,7.23
2019-04-28T11:08:32.805Z,8.37
2019-04-28T11:11:06.595Z,7.43
2019-04-28T11:13:36.919Z,7.80
2019-04-28T11:16:05.478Z,7.83
2019-04-28T11:18:41.448Z,7.57
2019-04-28T11:21:09.883Z,8.97
2019-04-28T11:23:38.347Z,8.13
2019-04-28T11:26:06.791Z,8.10
2019-04-28T11:28:37.820Z,8.20
2019-04-28T11:31:05.542Z,8.83
2019-04-28T11:33:40.522Z,8.53
2019-04-28T11:36:09.112Z,7.80
2019-04-28T11:38:40.088Z,8.60
2019-04-28T11:41:11.424Z,9.30
2019-04-28T11:43:39.157Z,8.37
2019-04-28T11:46:09.243Z,7.40
2019-04-28T11:48:37.714Z,6.07
2019-04-28T11:51:06.159Z,6.00
2019-04-28T11:53:36.855Z,5.83
2019-04-28T11:56:05.322Z,7.43
2019-04-28T11:58:35.531Z,7.43
2019-04-28T12:01:05.347Z,8.13
2019-04-28T12:03:33.866Z,7.50
2019-04-28T12:06:04.845Z,7.83
2019-04-28T12:08:33.398Z,8.77
2019-04-28T12:11:23.822Z,7.60
2019-04-28T12:14:10.765Z,6.90
2019-04-28T12:17:04.265Z,6.20
2019-04-28T12:19:42.547Z,6.40
2019-04-28T12:22:11.007Z,6.90
2019-04-28T12:24:39.623Z,5.93
2019-04-28T12:27:08.069Z,6.30
2019-04-28T12:29:36.463Z,6.70
2019-04-28T12:32:05.298Z,6.40
2019-04-28T12:34:35.342Z,5.97
2019-04-28T12:37:03.907Z,4.53
2019-04-28T12:39:32.412Z,4.17
2019-04-28T12:42:00.795Z,3.60
2019-04-28T12:44:29.261Z,3.70
2019-04-28T12:46:57.742Z,3.77
2019-04-28T12:49:34.062Z,2.80
2019-04-28T12:52:02.879Z,2.40
2019-04-28T12:54:33.052Z,3.00
2019-04-28T12:57:01.512Z,2.23
2019-04-28T12:59:36.499Z,2.77
2019-04-28T13:02:19.821Z,2.57
2019-04-28T13:04:51.907Z,2.40
2019-04-28T13:07:23.701Z,2.60
2019-04-28T13:09:52.402Z,2.40
2019-04-28T13:12:20.899Z,2.37
2019-04-28T13:14:49.419Z,2.37
2019-04-28T13:17:18.908Z,3.23
2019-04-28T13:19:47.500Z,2.70
2019-04-28T13:22:16.309Z,2.73
2019-04-28T13:24:44.790Z,3.27
2019-04-28T13:27:13.530Z,3.10
2019-04-28T13:29:42.050Z,3.00
2019-04-28T13:32:10.573Z,3.47
2019-04-28T13:34:40.130Z,3.10
2019-04-28T13:37:10.728Z,3.17
2019-04-28T13:39:54.032Z,3.57
2019-04-28T13:42:25.635Z,3.87
2019-04-28T13:45:02.895Z,3.80
2019-04-28T13:47:34.674Z,3.97
2019-04-28T13:50:12.907Z,3.70
2019-04-28T13:52:45.987Z,3.73
2019-04-28T13:55:32.348Z,3.77
2019-04-28T13:58:03.829Z,3.43
2019-04-28T14:00:50.325Z,3.47
2019-04-28T14:03:36.049Z,3.50
2019-04-28T14:06:07.627Z,3.73
2019-04-28T14:08:36.071Z,3.20
2019-04-28T14:11:04.603Z,3.67
2019-04-28T14:13:33.111Z,3.50
2019-04-28T14:16:01.619Z,3.50
2019-04-28T14:18:33.457Z,3.27
2019-04-28T14:21:01.986Z,3.20
2019-04-28T14:23:33.478Z,3.70
2019-04-28T14:26:01.927Z,2.93
2019-04-28T14:28:36.223Z,3.90
2019-04-28T14:31:04.650Z,3.27
2019-04-28T14:33:33.192Z,3.37
2019-04-28T14:36:02.783Z,2.50
2019-04-28T14:38:31.266Z,2.67
2019-04-28T14:41:00.567Z,2.40
2019-04-28T14:43:29.168Z,2.53
2019-04-28T14:45:57.886Z,2.50
2019-04-28T14:48:26.389Z,2.43
2019-04-28T14:50:55.125Z,2.97
2019-04-28T14:53:23.630Z,2.83
2019-04-28T14:55:52.468Z,2.50
2019-04-28T14:58:22.038Z,2.40
2019-04-28T15:00:55.137Z,2.20
2019-04-28T15:03:24.661Z,1.80
2019-04-28T15:06:04.778Z,2.47
2019-04-28T15:08:55.312Z,2.50
2019-04-28T15:12:01.041Z,2.90
2019-04-28T15:14:29.726Z,2.97
2019-04-28T15:16:58.184Z,2.73
2019-04-28T15:19:26.637Z,2.90
2019-04-28T15:22:02.803Z,2.73
2019-04-28T15:24:35.384Z,2.87
2019-04-28T15:27:03.871Z,2.77
2019-04-28T15:29:32.435Z,2.87
2019-04-28T15:32:00.984Z,2.57
2019-04-28T15:34:29.453Z,2.37
2019-04-28T15:37:09.153Z,3.53
2019-04-28T15:39:34.455Z,3.03
2019-04-28T15:42:02.825Z,3.10
2019-04-28T15:44:31.307Z,2.40
2019-04-28T15:46:59.750Z,2.43
2019-04-28T15:49:28.287Z,2.40
2019-04-28T15:51:56.667Z,3.43
2019-04-28T15:54:25.079Z,4.17
2019-04-28T15:56:53.791Z,4.23
2019-04-28T15:59:27.282Z,5.10
2019-04-28T16:01:56.808Z,4.10
2019-04-28T16:04:31.401Z,7.03
2019-04-28T16:07:00.060Z,4.50
2019-04-28T16:09:30.811Z,6.07
2019-04-28T16:11:59.481Z,5.07
2019-04-28T16:14:28.137Z,4.80
2019-04-28T16:16:56.900Z,10.60
2019-04-28T16:19:25.684Z,6.93
2019-04-28T16:21:54.346Z,8.83
2019-04-28T16:24:22.951Z,4.67
2019-04-28T16:26:51.521Z,4.10
2019-04-28T16:29:20.068Z,4.77
2019-04-28T16:31:48.620Z,4.70
2019-04-28T16:34:17.145Z,4.20
2019-04-28T16:36:45.615Z,4.97
2019-04-28T16:39:14.096Z,5.37
2019-04-28T16:41:42.721Z,5.10
2019-04-28T16:44:18.803Z,5.50
2019-04-28T16:46:47.210Z,5.40
2019-04-28T16:49:15.556Z,5.97
2019-04-28T16:51:44.019Z,5.87
2019-04-28T16:54:12.502Z,6.43
2019-04-28T16:56:54.210Z,5.83
2019-04-28T16:59:41.747Z,5.70
2019-04-28T17:02:28.638Z,5.50
2019-04-28T17:04:57.095Z,4.87
2019-04-28T17:07:25.458Z,4.83
2019-04-28T17:09:53.907Z,4.90
2019-04-28T17:12:22.451Z,5.13
2019-04-28T17:14:50.913Z,5.03
2019-04-28T17:17:19.367Z,5.17
2019-04-28T17:19:47.826Z,4.73
2019-04-28T17:22:16.383Z,5.53
2019-04-28T17:24:44.759Z,5.73
2019-04-28T17:27:13.297Z,6.37
2019-04-28T17:29:41.767Z,5.67
2019-04-28T17:32:10.211Z,5.20
2019-04-28T17:34:38.712Z,6.40
2019-04-28T17:37:08.169Z,5.50
2019-04-28T17:39:36.638Z,5.43
2019-04-28T17:42:05.555Z,5.20
2019-04-28T17:44:33.928Z,5.37
2019-04-28T17:47:02.457Z,5.90
2019-04-28T17:49:35.621Z,5.37
2019-04-28T17:52:05.291Z,5.90
2019-04-28T17:54:33.812Z,5.00
2019-04-28T17:57:02.934Z,5.13
2019-04-28T17:59:31.403Z,4.57
2019-04-28T18:02:24.476Z,5.10
2019-04-28T18:05:14.926Z,4.90
2019-04-28T18:07:44.019Z,4.87
2019-04-28T18:10:12.796Z,5.30
2019-04-28T18:12:41.262Z,5.47
2019-04-28T18:15:28.925Z,6.23
2019-04-28T18:18:19.443Z,6.70
2019-04-28T18:20:47.967Z,6.30
2019-04-28T18:23:16.428Z,6.23
2019-04-28T18:25:44.865Z,7.10
2019-04-28T18:28:13.346Z,6.30
2019-04-28T18:30:48.179Z,6.70
2019-04-28T18:33:34.411Z,7.03
2019-04-28T18:36:09.829Z,7.73
2019-04-28T18:38:46.711Z,6.53
2019-04-28T18:41:33.143Z,7.17
2019-04-28T18:44:05.078Z,6.57
2019-04-28T18:46:33.531Z,6.83
2019-04-28T18:49:01.939Z,6.23
2019-04-28T18:51:30.414Z,7.23
2019-04-28T18:53:58.884Z,7.33
2019-04-28T18:56:27.365Z,6.97
2019-04-28T18:58:55.891Z,7.13
2019-04-28T19:01:35.004Z,7.97
2019-04-28T19:04:03.388Z,7.60
2019-04-28T19:06:31.911Z,7.77
2019-04-28T19:09:11.158Z,8.98
2019-04-28T19:11:44.616Z,7.37
2019-04-28T19:14:29.463Z,8.30
2019-04-28T19:17:26.098Z,8.47
2019-04-28T19:19:54.699Z,8.87
2019-04-28T19:22:23.146Z,8.70
2019-04-28T19:24:51.643Z,8.77
2019-04-28T19:27:20.472Z,9.70
2019-04-28T19:29:48.952Z,9.70
2019-04-28T19:32:17.475Z,9.20
2019-04-28T19:34:45.971Z,9.27
2019-04-28T19:37:14.431Z,10.43
2019-04-28T19:39:42.931Z,9.50
2019-04-28T19:42:11.429Z,10.23
2019-04-28T19:44:39.936Z,11.57
2019-04-28T19:47:08.482Z,10.73
2019-04-28T19:49:43.900Z,10.90
2019-04-28T19:52:12.300Z,9.40
2019-04-28T19:54:59.877Z,10.37
2019-04-28T19:57:38.194Z,9.90
2019-04-28T20:00:25.876Z,11.50
2019-04-28T20:02:54.460Z,10.13
2019-04-28T20:05:23.016Z,9.90
2019-04-28T20:07:51.530Z,9.63
2019-04-28T20:10:20.098Z,10.07
2019-04-28T20:12:48.645Z,10.33
2019-04-28T20:15:17.302Z,10.57
2019-04-28T20:17:46.019Z,9.60
2019-04-28T20:20:14.670Z,10.97
2019-04-28T20:22:43.247Z,10.67
2019-04-28T20:25:11.895Z,12.18
2019-04-28T20:27:54.423Z,10.75
2019-04-28T20:30:22.861Z,10.20
2019-04-28T20:32:51.472Z,9.70
2019-04-28T20:35:24.207Z,11.20
2019-04-28T20:37:57.546Z,13.40
2019-04-28T20:40:40.105Z,10.87
2019-04-28T20:43:19.631Z,11.03
2019-04-28T20:45:48.219Z,11.23
2019-04-28T20:48:16.689Z,10.63
2019-04-28T20:50:45.339Z,10.73
2019-04-28T20:53:20.112Z,11.20
2019-04-28T20:55:49.644Z,11.57
2019-04-28T20:58:18.169Z,12.03
2019-04-28T21:00:46.710Z,11.60
2019-04-28T21:03:15.267Z,13.17
2019-04-28T21:05:43.845Z,11.83
2019-04-28T21:08:12.365Z,13.03
2019-04-28T21:10:40.949Z,11.87
2019-04-28T21:13:09.451Z,12.37
2019-04-28T21:15:37.938Z,11.57
2019-04-28T21:18:06.404Z,12.37
2019-04-28T21:20:34.852Z,12.97
2019-04-28T21:23:03.354Z,14.47
2019-04-28T21:25:31.878Z,15.47
2019-04-28T21:28:00.409Z,15.23
2019-04-28T21:30:28.940Z,15.77
2019-04-28T21:32:57.491Z,15.57
2019-04-28T21:35:26.036Z,15.17
2019-04-28T21:37:54.471Z,16.50
2019-04-28T21:40:23.719Z,15.77
2019-04-28T21:43:20.738Z,14.87
2019-04-28T21:46:07.316Z,16.80
2019-04-28T21:48:47.947Z,15.83
2019-04-28T21:51:16.484Z,15.90
2019-04-28T21:53:45.041Z,16.17
2019-04-28T21:56:13.540Z,17.00
2019-04-28T21:58:42.107Z,15.83
2019-04-28T22:01:12.347Z,15.43
2019-04-28T22:03:40.883Z,15.20
2019-04-28T22:06:09.422Z,14.63
2019-04-28T22:08:37.947Z,16.30
2019-04-28T22:11:09.340Z,15.77
2019-04-28T22:13:37.900Z,16.97
2019-04-28T22:16:07.001Z,15.57
2019-04-28T22:18:35.510Z,16.97
2019-04-28T22:21:04.059Z,16.57
2019-04-28T22:23:46.503Z,16.40
2019-04-28T22:26:34.600Z,16.47
2019-04-28T22:29:03.196Z,16.47
2019-04-28T22:31:31.705Z,16.87
2019-04-28T22:34:00.164Z,16.93
2019-04-28T22:36:28.762Z,18.20
2019-04-28T22:38:57.431Z,17.10
2019-04-28T22:41:26.030Z,16.67
2019-04-28T22:43:54.510Z,17.93
2019-04-28T22:46:23.053Z,17.73
2019-04-28T22:48:52.487Z,18.10
2019-04-28T22:51:20.983Z,17.83
2019-04-28T22:53:49.558Z,19.03
2019-04-28T22:56:43.092Z,18.63
2019-04-28T22:59:16.024Z,16.53
2019-04-28T23:01:47.837Z,17.97
2019-04-28T23:04:41.427Z,18.87
2019-04-28T23:07:10.166Z,17.57
2019-04-28T23:09:38.657Z,18.13
2019-04-28T23:12:08.675Z,19.83
2019-04-28T23:14:37.260Z,19.03
2019-04-28T23:17:07.447Z,20.23
2019-04-28T23:19:37.869Z,19.50
2019-04-28T23:22:24.091Z,18.50
2019-04-28T23:24:52.618Z,19.50
2019-04-28T23:27:21.131Z,20.43
2019-04-28T23:29:49.727Z,18.87
2019-04-28T23:32:18.378Z,18.30
2019-04-28T23:34:46.930Z,19.53
2019-04-28T23:37:15.944Z,19.33
2019-04-28T23:39:44.451Z,20.03
2019-04-28T23:42:21.722Z,20.27
2019-04-28T23:44:50.243Z,19.37
2019-04-28T23:47:18.770Z,20.50
2019-04-28T23:49:47.404Z,20.70
2019-04-28T23:52:33.733Z,19.43
2019-04-28T23:55:04.556Z,19.43
2019-04-28T23:57:33.055Z,20.33
